Time;durP1;ratioP1;P1;durP2;ratioP2;P2;SDS_P1;SDS_P2;PMS_P1;PMS_P2;Temp;Humidity;BMP_temperature;BMP_pressure;BME280_temperature;BME280_humidity;BME280_pressure;Samples;Min_cycle;Max_cycle;Signal;HPM_P1;HPM_P2
2023/07/22 00:00:41;;;;;;;3.07;2.77;;;14.50;29.30;;;;;;5130637;27;20472;-46
2023/07/22 00:03:06;;;;;;;3.10;2.60;;;14.50;42.30;;;;;;5132045;27;20248;-45
2023/07/22 00:05:32;;;;;;;3.90;2.40;;;14.50;47.70;;;;;;5133390;27;20244;-45
2023/07/22 00:07:57;;;;;;;5.10;3.63;;;14.50;93.50;;;;;;5134329;27;20399;-48
2023/07/22 00:10:23;;;;;;;4.20;3.17;;;14.50;99.90;;;;;;5134555;27;20243;-46
2023/07/22 00:12:49;;;;;;;3.37;3.07;;;14.50;99.90;;;;;;5134472;27;20191;-45
2023/07/22 00:15:14;;;;;;;3.40;2.50;;;14.50;99.90;;;;;;5135327;27;20479;-46
2023/07/22 00:17:41;;;;;;;4.00;3.33;;;14.40;99.90;;;;;;5135695;27;20198;-45
2023/07/22 00:20:11;;;;;;;3.50;3.03;;;14.40;99.90;;;;;;5136053;27;20231;-46
2023/07/22 00:22:40;;;;;;;3.40;2.60;;;14.40;99.90;;;;;;5135563;27;20464;-46
2023/07/22 00:25:15;;;;;;;4.03;3.30;;;14.40;99.90;;;;;;5135219;27;20771;-43
2023/07/22 00:27:42;;;;;;;4.73;3.40;;;14.40;99.90;;;;;;5133822;27;20424;-45
2023/07/22 00:30:08;;;;;;;3.70;2.90;;;14.40;99.90;;;;;;5133987;27;20453;-44
2023/07/22 00:32:34;;;;;;;3.63;2.90;;;14.30;99.90;;;;;;5133921;27;20894;-43
2023/07/22 00:35:00;;;;;;;3.17;2.87;;;14.30;99.90;;;;;;5133683;27;20652;-45
2023/07/22 00:37:26;;;;;;;4.23;3.00;;;14.30;99.90;;;;;;5134013;27;20437;-45
2023/07/22 00:39:51;;;;;;;2.70;2.43;;;14.30;1.00;;;;;;5136846;27;20182;-47
2023/07/22 00:42:17;;;;;;;3.37;3.00;;;14.30;99.90;;;;;;5136037;27;20230;-46
2023/07/22 00:44:43;;;;;;;5.13;3.10;;;14.30;99.90;;;;;;5136402;27;20189;-44
2023/07/22 00:47:08;;;;;;;3.70;3.30;;;14.30;1.00;;;;;;5135829;27;20206;-46
2023/07/22 00:49:35;;;;;;;3.53;3.23;;;14.30;1.00;;;;;;5135554;27;20175;-46
2023/07/22 00:52:04;;;;;;;4.50;3.47;;;14.30;1.00;;;;;;5134009;27;20270;-46
2023/07/22 00:54:30;;;;;;;4.87;3.60;;;14.30;1.00;;;;;;5133646;28;20472;-46
2023/07/22 00:56:57;;;;;;;3.23;2.90;;;14.30;1.00;;;;;;5113814;28;20649;-45
2023/07/22 00:59:23;;;;;;;3.23;2.93;;;14.40;99.90;;;;;;5133906;28;20823;-46
2023/07/22 01:01:49;;;;;;;3.70;3.40;;;14.30;99.90;;;;;;5133516;28;20461;-46
2023/07/22 01:04:16;;;;;;;5.10;3.03;;;14.30;1.00;;;;;;5114465;28;20890;-45
2023/07/22 01:06:44;;;;;;;3.53;2.70;;;14.30;1.00;;;;;;5134045;28;20418;-43
2023/07/22 01:09:09;;;;;;;4.50;3.20;;;14.20;1.00;;;;;;5115354;28;20428;-45
2023/07/22 01:11:35;;;;;;;4.13;3.23;;;14.20;1.00;;;;;;5134507;28;20431;-45
2023/07/22 01:14:01;;;;;;;3.47;3.17;;;14.40;1.00;;;;;;5134145;28;20194;-45
2023/07/22 01:16:28;;;;;;;3.40;3.10;;;14.30;99.90;;;;;;5133469;28;20861;-44
2023/07/22 01:18:54;;;;;;;3.23;2.93;;;14.30;99.90;;;;;;5115453;28;20235;-46
2023/07/22 01:21:22;;;;;;;4.10;3.57;;;14.30;99.90;;;;;;5134945;28;20475;-44
2023/07/22 01:23:48;;;;;;;3.20;2.83;;;14.30;99.90;;;;;;5138070;27;20487;-46
2023/07/22 01:26:14;;;;;;;6.20;3.20;;;14.30;99.90;;;;;;5139073;27;20409;-49
2023/07/22 01:28:40;;;;;;;3.30;2.80;;;14.20;99.90;;;;;;5136907;27;20322;-44
2023/07/22 01:31:05;;;;;;;4.33;2.93;;;14.20;1.00;;;;;;5137155;27;20504;-45
2023/07/22 01:33:31;;;;;;;4.07;3.20;;;14.20;1.00;;;;;;5137717;27;20535;-45
2023/07/22 01:35:57;;;;;;;5.63;2.97;;;14.20;1.00;;;;;;5137679;27;20242;-44
2023/07/22 01:38:23;;;;;;;5.97;3.20;;;14.20;1.00;;;;;;5119658;27;20483;-45
2023/07/22 01:40:49;;;;;;;5.50;3.10;;;14.20;1.00;;;;;;5118964;27;20876;-46
2023/07/22 01:43:14;;;;;;;4.33;3.67;;;14.20;1.00;;;;;;5136884;27;20222;-47
2023/07/22 01:45:40;;;;;;;4.13;3.63;;;14.20;99.90;;;;;;5136736;27;20193;-45
2023/07/22 01:48:06;;;;;;;3.97;3.60;;;14.20;99.90;;;;;;5136517;27;20555;-45
2023/07/22 01:50:32;;;;;;;4.80;3.77;;;14.20;99.90;;;;;;5137127;27;20553;-47
2023/07/22 01:52:57;;;;;;;4.47;3.80;;;14.20;99.90;;;;;;5138341;27;20419;-47
2023/07/22 01:55:23;;;;;;;4.57;3.20;;;14.20;99.90;;;;;;5138188;27;20857;-44
2023/07/22 01:57:49;;;;;;;4.23;3.83;;;14.10;99.90;;;;;;5137393;27;20520;-47
2023/07/22 02:00:15;;;;;;;3.13;2.70;;;14.00;99.90;;;;;;5136738;27;20175;-45
2023/07/22 02:02:41;;;;;;;3.27;2.97;;;14.00;1.00;;;;;;5135217;27;20423;-44
2023/07/22 02:05:08;;;;;;;3.30;2.87;;;14.00;1.00;;;;;;5137654;27;20416;-44
2023/07/22 02:07:34;;;;;;;3.60;3.17;;;14.00;1.00;;;;;;5137860;27;20428;-44
2023/07/22 02:10:00;;;;;;;3.47;3.13;;;13.90;1.00;;;;;;5137848;27;20430;-44
2023/07/22 02:12:26;;;;;;;3.90;3.50;;;14.00;99.90;;;;;;5138097;27;20443;-44
2023/07/22 02:14:51;;;;;;;4.30;3.43;;;13.90;99.90;;;;;;5136664;27;20553;-45
2023/07/22 02:17:17;;;;;;;4.20;3.80;;;14.00;99.90;;;;;;5137185;27;20334;-45
2023/07/22 02:19:43;;;;;;;4.30;3.13;;;14.00;99.90;;;;;;5138178;27;20230;-44
2023/07/22 02:22:09;;;;;;;5.00;3.97;;;13.90;99.90;;;;;;5136923;27;20263;-44
2023/07/22 02:24:35;;;;;;;4.37;3.53;;;13.90;99.90;;;;;;5136871;27;20757;-46
2023/07/22 02:27:01;;;;;;;4.40;2.90;;;13.90;99.90;;;;;;5136329;27;20425;-45
2023/07/22 02:29:26;;;;;;;3.87;3.57;;;13.90;1.00;;;;;;5138058;27;20446;-44
2023/07/22 02:31:52;;;;;;;4.10;3.57;;;13.90;1.00;;;;;;5137400;27;20404;-44
2023/07/22 02:34:18;;;;;;;4.83;3.30;;;13.90;1.00;;;;;;5136547;27;20186;-45
2023/07/22 02:36:43;;;;;;;4.67;3.27;;;13.90;99.90;;;;;;5137498;27;20194;-44
2023/07/22 02:39:09;;;;;;;4.30;3.20;;;13.90;99.90;;;;;;5136990;27;20183;-46
2023/07/22 02:41:37;;;;;;;3.53;3.20;;;13.90;99.90;;;;;;5137567;27;20282;-45
2023/07/22 02:44:05;;;;;;;4.30;3.47;;;13.80;99.90;;;;;;5138288;27;20179;-45
2023/07/22 02:46:31;;;;;;;8.80;3.50;;;13.80;1.00;;;;;;5137388;27;20416;-45
2023/07/22 02:48:58;;;;;;;3.20;2.90;;;13.80;1.00;;;;;;5137575;27;20572;-45
2023/07/22 02:51:24;;;;;;;3.60;3.17;;;13.80;1.00;;;;;;5137602;27;20186;-45
2023/07/22 02:53:50;;;;;;;4.67;4.17;;;13.80;1.00;;;;;;5136725;27;20433;-44
2023/07/22 02:56:15;;;;;;;4.40;3.13;;;13.80;1.00;;;;;;5136576;27;20349;-46
2023/07/22 02:58:44;;;;;;;3.37;3.07;;;13.80;1.00;;;;;;5136109;27;20499;-44
2023/07/22 03:01:10;;;;;;;3.40;2.93;;;13.80;1.00;;;;;;5138158;27;20301;-43
2023/07/22 03:03:36;;;;;;;3.97;3.60;;;13.80;1.00;;;;;;5136978;27;20476;-45
2023/07/22 03:06:03;;;;;;;4.37;2.93;;;13.70;1.00;;;;;;5137467;27;20433;-44
2023/07/22 03:08:29;;;;;;;4.40;3.27;;;13.70;1.00;;;;;;5136692;27;20536;-45
2023/07/22 03:10:55;;;;;;;3.20;2.77;;;13.70;1.00;;;;;;5135317;27;20499;-46
2023/07/22 03:13:21;;;;;;;3.33;2.67;;;13.70;1.00;;;;;;5136392;27;20527;-46
2023/07/22 03:15:46;;;;;;;2.73;2.43;;;13.60;1.00;;;;;;5136289;27;20582;-45
2023/07/22 03:18:12;;;;;;;6.40;3.03;;;13.60;1.00;;;;;;5137062;27;20624;-45
2023/07/22 03:20:38;;;;;;;3.63;3.33;;;13.60;1.00;;;;;;5137054;27;20235;-44
2023/07/22 03:23:05;;;;;;;6.33;3.73;;;13.60;1.00;;;;;;5136394;27;20219;-45
2023/07/22 03:25:32;;;;;;;3.67;3.30;;;13.70;1.00;;;;;;5136624;27;20485;-47
2023/07/22 03:27:58;;;;;;;4.50;3.43;;;13.60;1.00;;;;;;5135775;27;20428;-46
2023/07/22 03:30:24;;;;;;;4.90;4.00;;;13.60;1.00;;;;;;5106305;28;20487;-44
2023/07/22 03:32:53;;;;;;;4.93;2.80;;;13.60;1.00;;;;;;5115845;28;20433;-44
2023/07/22 03:35:18;;;;;;;4.20;3.27;;;13.60;1.00;;;;;;5129497;27;20611;-44
2023/07/22 03:37:44;;;;;;;3.20;2.90;;;13.50;1.00;;;;;;5136073;27;20505;-45
2023/07/22 03:40:14;;;;;;;5.40;3.20;;;13.50;1.00;;;;;;5137569;27;20269;-46
2023/07/22 03:42:39;;;;;;;4.27;3.40;;;13.50;1.00;;;;;;5136317;27;20572;-44
2023/07/22 03:45:07;;;;;;;3.50;3.00;;;13.50;1.00;;;;;;5136022;27;20436;-43
2023/07/22 03:47:33;;;;;;;4.10;3.57;;;13.50;1.00;;;;;;5135112;27;20186;-44
2023/07/22 03:49:58;;;;;;;4.00;2.67;;;13.50;1.00;;;;;;5135611;27;20416;-45
2023/07/22 03:52:24;;;;;;;5.37;3.70;;;13.50;1.00;;;;;;5135865;27;20187;-44
2023/07/22 03:54:50;;;;;;;3.90;3.50;;;13.50;1.00;;;;;;5134742;27;20182;-45
2023/07/22 03:57:15;;;;;;;6.63;3.60;;;13.50;1.00;;;;;;5136294;27;20391;-46
2023/07/22 03:59:41;;;;;;;4.07;3.60;;;13.50;1.00;;;;;;5115738;27;20638;-45
2023/07/22 04:02:06;;;;;;;5.63;3.97;;;13.60;1.00;;;;;;5116173;28;20206;-45
2023/07/22 04:04:33;;;;;;;6.13;3.40;;;13.60;1.00;;;;;;5116000;28;20184;-45
2023/07/22 04:06:58;;;;;;;6.87;3.50;;;13.70;1.00;;;;;;5115427;28;20245;-45
2023/07/22 04:09:25;;;;;;;3.23;2.93;;;13.60;1.00;;;;;;5116701;28;20445;-44
2023/07/22 04:11:52;;;;;;;4.33;3.07;;;13.70;1.00;;;;;;5098152;28;20198;-47
2023/07/22 04:14:18;;;;;;;4.20;3.47;;;13.70;1.00;;;;;;5115397;28;20994;-44
2023/07/22 04:16:43;;;;;;;3.43;3.13;;;13.80;1.00;;;;;;5116856;27;20612;-46
2023/07/22 04:19:09;;;;;;;6.03;3.23;;;13.80;1.00;;;;;;5135986;27;20179;-46
2023/07/22 04:21:34;;;;;;;4.27;3.30;;;13.90;99.90;;;;;;5135110;27;20317;-44
2023/07/22 04:24:00;;;;;;;3.93;3.53;;;13.90;99.90;;;;;;5134645;27;20407;-46
2023/07/22 04:26:26;;;;;;;3.20;2.90;;;13.90;99.90;;;;;;5134184;27;20251;-46
2023/07/22 04:28:51;;;;;;;3.30;3.00;;;14.00;99.90;;;;;;5130971;27;20472;-45
2023/07/22 04:31:18;;;;;;;3.50;3.20;;;14.00;99.90;;;;;;5124413;27;20178;-46
2023/07/22 04:33:44;;;;;;;4.23;3.57;;;14.10;99.90;;;;;;5133331;27;20432;-46
2023/07/22 04:36:11;;;;;;;3.77;3.47;;;14.10;99.90;;;;;;5133107;27;20492;-45
2023/07/22 04:38:36;;;;;;;4.10;3.53;;;14.10;99.90;;;;;;5132348;27;20391;-46
2023/07/22 04:41:03;;;;;;;3.90;3.27;;;14.20;99.90;;;;;;5132824;27;20417;-44
2023/07/22 04:43:29;;;;;;;4.60;3.47;;;14.20;99.90;;;;;;5131569;27;20218;-45
2023/07/22 04:45:55;;;;;;;4.03;3.63;;;14.30;99.90;;;;;;5113960;28;20438;-46
2023/07/22 04:48:24;;;;;;;4.60;3.13;;;14.30;99.90;;;;;;5120441;28;20186;-46
2023/07/22 04:50:50;;;;;;;4.07;3.00;;;14.40;99.90;;;;;;5136266;27;20527;-47
2023/07/22 04:53:17;;;;;;;3.50;3.20;;;14.50;57.60;;;;;;5136604;27;20465;-45
2023/07/22 04:55:43;;;;;;;3.33;2.90;;;14.50;23.00;;;;;;5136951;28;20503;-47
2023/07/22 04:58:10;;;;;;;4.20;3.23;;;14.60;1.00;;;;;;5134665;27;20960;-48
2023/07/22 05:00:37;;;;;;;5.83;3.30;;;14.60;1.00;;;;;;5125002;28;20198;-46
2023/07/22 05:03:03;;;;;;;4.60;3.80;;;14.70;1.00;;;;;;5117068;28;20591;-47
2023/07/22 05:05:30;;;;;;;3.73;3.30;;;14.80;1.00;;;;;;5133656;28;20881;-45
2023/07/22 05:07:55;;;;;;;3.40;3.10;;;14.80;1.00;;;;;;5098825;28;20432;-45
2023/07/22 05:10:22;;;;;;;3.80;3.40;;;14.90;1.00;;;;;;5133479;28;20494;-46
2023/07/22 05:12:48;;;;;;;4.77;3.33;;;15.00;99.90;;;;;;5133728;28;20464;-45
2023/07/22 05:15:14;;;;;;;3.87;3.43;;;15.10;99.90;;;;;;5131859;28;20545;-47
2023/07/22 05:17:40;;;;;;;4.47;3.20;;;15.10;99.90;;;;;;5114713;28;20215;-47
2023/07/22 05:20:09;;;;;;;3.40;3.10;;;15.20;99.90;;;;;;5119117;28;20616;-46
2023/07/22 05:22:34;;;;;;;4.00;3.20;;;15.30;96.50;;;;;;5133055;28;20480;-45
2023/07/22 05:25:00;;;;;;;4.13;3.40;;;15.40;16.20;;;;;;5133008;28;20436;-47
2023/07/22 05:27:26;;;;;;;4.23;3.40;;;15.50;1.00;;;;;;5134398;28;20754;-46
2023/07/22 05:29:51;;;;;;;3.87;3.27;;;15.50;1.00;;;;;;5106243;28;20194;-47
2023/07/22 05:32:17;;;;;;;3.73;3.30;;;15.60;1.00;;;;;;5113826;28;20229;-48
2023/07/22 05:34:42;;;;;;;4.47;3.23;;;15.70;1.00;;;;;;5113143;28;20250;-49
2023/07/22 05:37:08;;;;;;;4.47;3.40;;;15.70;99.90;;;;;;5105801;28;20214;-45
2023/07/22 05:39:34;;;;;;;3.17;2.87;;;15.80;99.90;;;;;;5133830;28;20493;-47
2023/07/22 05:42:00;;;;;;;3.87;3.40;;;15.90;99.90;;;;;;5134311;28;20203;-46
2023/07/22 05:44:25;;;;;;;5.03;3.30;;;15.90;6.00;;;;;;5132293;28;20182;-46
2023/07/22 05:46:51;;;;;;;3.50;3.07;;;15.90;99.90;;;;;;5132298;28;20477;-45
2023/07/22 05:49:17;;;;;;;4.30;3.80;;;16.00;55.20;;;;;;5133000;28;20534;-46
2023/07/22 05:51:42;;;;;;;3.37;3.07;;;16.00;99.90;;;;;;5133146;28;20185;-46
2023/07/22 05:54:08;;;;;;;4.30;3.50;;;16.10;2.20;;;;;;5131896;28;20184;-46
2023/07/22 05:56:34;;;;;;;3.70;3.17;;;16.20;1.00;;;;;;5133258;28;20190;-46
2023/07/22 05:58:59;;;;;;;4.87;3.10;;;16.30;1.00;;;;;;5133804;28;20486;-46
2023/07/22 06:01:25;;;;;;;4.63;3.13;;;16.50;1.00;;;;;;5133943;28;20274;-46
2023/07/22 06:03:51;;;;;;;3.50;3.20;;;16.70;1.00;;;;;;5134511;28;20210;-44
2023/07/22 06:06:17;;;;;;;5.07;3.57;;;16.80;1.00;;;;;;5134080;28;20274;-46
2023/07/22 06:08:43;;;;;;;6.73;3.10;;;16.90;1.00;;;;;;5134436;27;20792;-49
2023/07/22 06:11:09;;;;;;;3.10;2.80;;;16.90;1.00;;;;;;5136960;27;20178;-45
2023/07/22 06:13:35;;;;;;;4.63;3.17;;;17.00;1.00;;;;;;5137194;27;20858;-48
2023/07/22 06:16:00;;;;;;;4.63;3.20;;;17.10;1.00;;;;;;5136401;27;20230;-47
2023/07/22 06:18:26;;;;;;;3.07;2.77;;;17.20;1.00;;;;;;5135968;27;20187;-47
2023/07/22 06:20:52;;;;;;;4.53;3.00;;;17.20;99.90;;;;;;5134176;27;20230;-45
2023/07/22 06:23:17;;;;;;;3.17;2.87;;;17.20;1.00;;;;;;5130995;27;20680;-46
2023/07/22 06:25:43;;;;;;;3.47;2.90;;;17.30;1.00;;;;;;5132518;27;20462;-45
2023/07/22 06:28:09;;;;;;;4.00;3.50;;;17.50;99.90;;;;;;5132952;27;20482;-48
2023/07/22 06:30:35;;;;;;;4.50;3.10;;;17.70;1.00;;;;;;5115423;27;20495;-45
2023/07/22 06:33:00;;;;;;;3.13;2.63;;;17.90;1.00;;;;;;5132572;27;20302;-48
2023/07/22 06:35:26;;;;;;;4.50;3.00;;;18.10;99.90;;;;;;5113338;27;20416;-46
2023/07/22 06:37:52;;;;;;;5.20;3.23;;;18.10;97.80;;;;;;5135078;27;20167;-46
2023/07/22 06:40:18;;;;;;;3.67;2.73;;;18.30;99.90;;;;;;5132903;27;20186;-45
2023/07/22 06:42:43;;;;;;;3.30;2.87;;;18.40;1.00;;;;;;5132113;27;20330;-45
2023/07/22 06:45:10;;;;;;;3.50;2.90;;;18.50;1.00;;;;;;5134730;27;20440;-47
2023/07/22 06:47:36;;;;;;;3.97;3.00;;;18.60;1.00;;;;;;5116372;27;20192;-49
2023/07/22 06:50:02;;;;;;;3.53;3.00;;;18.80;99.90;;;;;;5115375;28;20796;-47
2023/07/22 06:52:28;;;;;;;3.80;2.97;;;18.80;58.80;;;;;;5114491;28;20526;-47
2023/07/22 06:54:54;;;;;;;4.13;2.50;;;18.70;1.00;;;;;;5115231;28;20425;-47
2023/07/22 06:57:19;;;;;;;3.77;2.93;;;19.00;1.00;;;;;;5113829;28;20660;-46
2023/07/22 06:59:45;;;;;;;3.93;2.83;;;19.10;1.00;;;;;;5129083;27;20231;-45
2023/07/22 07:02:11;;;;;;;4.23;3.00;;;19.20;1.00;;;;;;5118738;27;20230;-46
2023/07/22 07:04:36;;;;;;;3.87;3.00;;;19.30;1.00;;;;;;5116488;28;20182;-45
2023/07/22 07:07:02;;;;;;;3.20;2.90;;;19.30;1.00;;;;;;5114789;28;20176;-45
2023/07/22 07:09:28;;;;;;;6.93;2.80;;;19.30;1.00;;;;;;5115363;28;20176;-47
2023/07/22 07:11:56;;;;;;;3.83;2.73;;;19.40;99.90;;;;;;5115075;28;20418;-47
2023/07/22 07:14:23;;;;;;;3.60;2.60;;;19.50;99.90;;;;;;5114625;28;20464;-45
2023/07/22 07:16:49;;;;;;;3.10;2.40;;;19.60;99.90;;;;;;5096026;28;20431;-45
2023/07/22 07:19:15;;;;;;;3.13;2.83;;;19.70;99.90;;;;;;5113924;28;20650;-45
2023/07/22 07:21:40;;;;;;;2.97;2.73;;;19.80;99.90;;;;;;5112355;28;20184;-45
2023/07/22 07:24:06;;;;;;;2.93;2.63;;;19.90;99.90;;;;;;5111835;28;20690;-45
2023/07/22 07:26:32;;;;;;;2.80;2.37;;;20.00;99.90;;;;;;5113304;28;20207;-47
2023/07/22 07:28:57;;;;;;;3.57;3.00;;;20.00;99.90;;;;;;5114518;28;20219;-45
2023/07/22 07:31:23;;;;;;;2.73;2.50;;;20.00;99.90;;;;;;5114450;28;20180;-45
2023/07/22 07:33:49;;;;;;;2.97;2.50;;;20.20;99.90;;;;;;5110841;28;20447;-47
2023/07/22 07:36:14;;;;;;;4.23;2.57;;;20.20;65.70;;;;;;5112934;28;20206;-47
2023/07/22 07:38:40;;;;;;;3.33;3.00;;;20.20;47.20;;;;;;5113076;28;20180;-46
2023/07/22 07:41:08;;;;;;;2.97;2.10;;;20.30;43.10;;;;;;5114329;28;20176;-45
2023/07/22 07:43:34;;;;;;;3.20;2.40;;;20.50;15.70;;;;;;5114593;28;20512;-48
2023/07/22 07:46:21;;;;;;;2.77;2.40;;;20.50;7.60;;;;;;5096254;28;20437;-47
2023/07/22 07:48:52;;;;;;;3.30;2.40;;;20.50;1.00;;;;;;5096808;28;20437;-49
2023/07/22 07:51:18;;;;;;;4.97;2.43;;;20.60;1.00;;;;;;5114502;28;20521;-46
2023/07/22 07:53:46;;;;;;;2.63;2.33;;;20.80;1.00;;;;;;5114885;28;20457;-47
2023/07/22 07:56:13;;;;;;;4.93;2.70;;;20.90;1.00;;;;;;5097692;28;20397;-46
2023/07/22 07:58:39;;;;;;;3.07;2.57;;;21.10;1.00;;;;;;5112797;28;20414;-47
2023/07/22 08:01:05;;;;;;;4.43;2.87;;;21.30;1.00;;;;;;5111713;28;20440;-47
2023/07/22 08:03:32;;;;;;;3.30;2.37;;;21.10;1.00;;;;;;5113615;28;20844;-46
2023/07/22 08:05:57;;;;;;;2.80;2.50;;;21.00;1.00;;;;;;5114048;28;20464;-46
2023/07/22 08:08:23;;;;;;;3.30;2.47;;;20.90;1.00;;;;;;5112590;28;20899;-46
2023/07/22 08:11:07;;;;;;;4.33;3.00;;;21.20;1.00;;;;;;5111144;28;20183;-47
2023/07/22 08:13:34;;;;;;;2.20;2.00;;;21.50;1.00;;;;;;5113923;28;20665;-49
2023/07/22 08:16:04;;;;;;;4.00;2.90;;;21.60;1.00;;;;;;5094265;28;20433;-46
2023/07/22 08:18:30;;;;;;;3.00;2.70;;;21.90;1.00;;;;;;5114698;28;20433;-44
2023/07/22 08:20:56;;;;;;;3.13;2.67;;;22.00;1.00;;;;;;5112205;28;20476;-48
2023/07/22 08:23:22;;;;;;;3.80;2.77;;;22.40;1.00;;;;;;5113302;28;20488;-49
2023/07/22 08:25:48;;;;;;;2.83;2.53;;;22.90;1.00;;;;;;5119160;27;20456;-45
2023/07/22 08:28:14;;;;;;;3.80;2.60;;;23.40;1.00;;;;;;5115712;27;20553;-48
2023/07/22 08:30:40;;;;;;;4.37;2.60;;;23.50;1.00;;;;;;5114563;27;20267;-49
2023/07/22 08:33:09;;;;;;;3.87;2.43;;;23.80;1.00;;;;;;5112211;28;20425;-45
2023/07/22 08:35:36;;;;;;;2.60;2.40;;;23.70;1.00;;;;;;5132945;27;20541;-47
2023/07/22 08:38:03;;;;;;;3.13;2.60;;;23.60;1.00;;;;;;5134344;27;20708;-45
2023/07/22 08:40:40;;;;;;;3.00;2.27;;;23.50;1.00;;;;;;5114579;27;20783;-46
2023/07/22 08:43:07;;;;;;;3.10;2.40;;;23.50;1.00;;;;;;5132316;27;20841;-45
2023/07/22 08:45:36;;;;;;;3.80;2.33;;;24.00;1.00;;;;;;5134230;27;20746;-45
2023/07/22 08:48:07;;;;;;;3.30;2.00;;;23.60;1.00;;;;;;5099919;28;20429;-49
2023/07/22 08:50:45;;;;;;;5.27;1.93;;;23.60;1.00;;;;;;5128754;27;20429;-46
2023/07/22 08:53:12;;;;;;;2.77;2.10;;;23.70;1.00;;;;;;5133233;27;20397;-45
2023/07/22 08:55:41;;;;;;;2.10;1.90;;;23.60;1.00;;;;;;5115804;28;20418;-44
2023/07/22 08:58:09;;;;;;;2.13;1.93;;;23.60;1.00;;;;;;5131779;28;20432;-47
2023/07/22 09:00:36;;;;;;;3.33;2.30;;;23.50;1.00;;;;;;5132759;28;20504;-44
2023/07/22 09:03:02;;;;;;;4.00;2.37;;;23.20;1.00;;;;;;5131411;28;20518;-48
2023/07/22 09:05:29;;;;;;;4.07;2.17;;;23.20;1.00;;;;;;5127998;28;20573;-51
2023/07/22 09:07:56;;;;;;;3.10;2.03;;;23.00;1.00;;;;;;5111685;28;20408;-49
2023/07/22 09:10:21;;;;;;;2.70;2.37;;;23.00;1.00;;;;;;5129375;28;20492;-45
2023/07/22 09:12:47;;;;;;;2.57;2.37;;;22.80;1.00;;;;;;5129968;28;20536;-49
2023/07/22 09:15:13;;;;;;;2.40;2.20;;;22.50;1.00;;;;;;5131761;28;20251;-48
2023/07/22 09:17:39;;;;;;;4.10;2.30;;;22.30;1.00;;;;;;5113553;28;20318;-48
2023/07/22 09:20:07;;;;;;;6.20;4.27;;;22.40;1.00;;;;;;5110322;28;20346;-48
2023/07/22 09:22:33;;;;;;;3.20;2.43;;;22.50;1.00;;;;;;5130667;28;20770;-52
2023/07/22 09:25:14;;;;;;;2.43;2.10;;;22.60;1.00;;;;;;5113597;28;20438;-45
2023/07/22 09:27:39;;;;;;;2.37;2.13;;;22.60;1.00;;;;;;5132087;28;20431;-48
2023/07/22 09:30:20;;;;;;;2.40;1.93;;;22.60;1.00;;;;;;5133587;28;20451;-48
2023/07/22 09:32:45;;;;;;;3.40;2.20;;;22.60;1.00;;;;;;5132653;28;20469;-48
2023/07/22 09:35:11;;;;;;;2.43;1.87;;;22.80;1.00;;;;;;5131327;28;20426;-47
2023/07/22 09:37:38;;;;;;;2.17;1.97;;;22.80;1.00;;;;;;5131048;28;20176;-48
2023/07/22 09:40:15;;;;;;;2.50;1.80;;;23.10;1.00;;;;;;5133682;28;20183;-47
2023/07/22 09:42:44;;;;;;;4.00;2.50;;;22.80;1.00;;;;;;5132513;28;20503;-49
2023/07/22 09:45:10;;;;;;;2.60;2.17;;;22.60;1.00;;;;;;5115234;27;20514;-47
2023/07/22 09:47:43;;;;;;;4.70;1.80;;;22.30;1.00;;;;;;5115882;27;20946;-50
2023/07/22 09:50:15;;;;;;;2.50;2.30;;;22.30;1.00;;;;;;5115414;27;20179;-48
2023/07/22 09:52:42;;;;;;;5.00;2.07;;;22.30;1.00;;;;;;5132176;27;20810;-50
2023/07/22 09:55:08;;;;;;;2.20;2.00;;;22.20;1.00;;;;;;5133140;27;20568;-47
2023/07/22 09:57:35;;;;;;;2.50;2.00;;;22.40;1.00;;;;;;5134038;27;20825;-49
2023/07/22 10:00:01;;;;;;;2.40;1.97;;;22.80;1.00;;;;;;5117284;27;20182;-46
2023/07/22 10:02:27;;;;;;;2.23;1.83;;;23.20;1.00;;;;;;5116461;27;20468;-47
2023/07/22 10:04:54;;;;;;;2.00;1.80;;;23.70;1.00;;;;;;5137056;27;20655;-47
2023/07/22 10:07:21;;;;;;;2.50;1.97;;;24.10;1.00;;;;;;5120539;27;20186;-49
2023/07/22 10:09:47;;;;;;;2.53;1.80;;;24.30;1.00;;;;;;5118159;27;20436;-46
2023/07/22 10:12:14;;;;;;;6.23;2.30;;;24.30;1.00;;;;;;5136870;27;20683;-46
2023/07/22 10:14:41;;;;;;;2.70;2.00;;;24.50;1.00;;;;;;5134311;27;20456;-48
2023/07/22 10:17:08;;;;;;;2.67;2.10;;;24.30;1.00;;;;;;5114629;27;20674;-49
2023/07/22 10:19:34;;;;;;;2.20;1.80;;;24.00;1.00;;;;;;5113678;27;20435;-50
2023/07/22 10:22:01;;;;;;;3.00;2.00;;;23.80;1.00;;;;;;5113660;27;20420;-49
2023/07/22 10:24:27;;;;;;;1.97;1.70;;;24.10;1.00;;;;;;5112999;27;20451;-50
2023/07/22 10:26:53;;;;;;;4.57;2.40;;;24.10;1.00;;;;;;5112779;27;20443;-48
2023/07/22 10:29:20;;;;;;;2.53;2.00;;;24.30;1.00;;;;;;5133282;27;20608;-46
2023/07/22 10:31:46;;;;;;;3.43;2.60;;;24.30;1.00;;;;;;5131606;27;20667;-47
2023/07/22 10:34:11;;;;;;;3.10;2.10;;;24.30;1.00;;;;;;5131047;27;20440;-49
2023/07/22 10:36:37;;;;;;;2.37;2.00;;;24.30;1.00;;;;;;5132690;27;20482;-49
2023/07/22 10:39:03;;;;;;;2.37;1.87;;;24.10;1.00;;;;;;5132918;27;20183;-49
2023/07/22 10:41:28;;;;;;;3.10;1.90;;;24.50;1.00;;;;;;5133883;27;20585;-50
2023/07/22 10:43:59;;;;;;;2.57;2.10;;;24.60;1.00;;;;;;5116707;27;20225;-50
2023/07/22 10:46:40;;;;;;;3.27;2.20;;;24.90;1.00;;;;;;5133349;27;20542;-49
2023/07/22 10:49:12;;;;;;;2.77;2.10;;;25.10;1.00;;;;;;5133298;27;20421;-48
2023/07/22 10:51:38;;;;;;;3.63;1.93;;;25.20;1.00;;;;;;5117464;27;20440;-50
2023/07/22 10:54:11;;;;;;;2.40;2.00;;;25.30;1.00;;;;;;5118045;27;20444;-51
2023/07/22 10:56:37;;;;;;;2.43;2.03;;;24.90;1.00;;;;;;5135060;27;20179;-49
2023/07/22 10:59:03;;;;;;;4.90;2.43;;;24.60;1.00;;;;;;5134463;27;20710;-50
2023/07/22 11:01:35;;;;;;;2.70;2.20;;;24.30;1.00;;;;;;5133740;27;20577;-51
2023/07/22 11:04:17;;;;;;;3.10;2.80;;;23.90;1.00;;;;;;5134055;27;20478;-48
2023/07/22 11:06:46;;;;;;;3.17;2.13;;;24.00;1.00;;;;;;5132069;27;20775;-48
2023/07/22 11:09:30;;;;;;;2.57;2.20;;;23.90;1.00;;;;;;5134124;27;20447;-49
2023/07/22 11:12:13;;;;;;;2.90;2.57;;;23.70;1.00;;;;;;5135334;27;20412;-47
2023/07/22 11:14:50;;;;;;;2.50;2.17;;;23.50;1.00;;;;;;5133373;27;20766;-48
2023/07/22 11:17:17;;;;;;;3.57;2.80;;;23.60;1.00;;;;;;5131961;27;20449;-49
2023/07/22 11:19:43;;;;;;;2.60;2.30;;;23.40;1.00;;;;;;5130956;27;20516;-52
2023/07/22 11:22:10;;;;;;;2.40;2.13;;;23.50;1.00;;;;;;5132236;27;20472;-47
2023/07/22 11:24:36;;;;;;;3.07;2.57;;;24.00;1.00;;;;;;5132100;27;20433;-52
2023/07/22 11:27:08;;;;;;;2.23;2.03;;;24.60;1.00;;;;;;5133185;27;20684;-47
2023/07/22 11:29:35;;;;;;;2.90;2.43;;;24.90;1.00;;;;;;5131166;27;20466;-48
2023/07/22 11:32:02;;;;;;;2.57;2.27;;;24.90;1.00;;;;;;5130658;27;20460;-50
2023/07/22 11:34:28;;;;;;;2.50;2.20;;;25.20;1.00;;;;;;5132567;27;20448;-50
2023/07/22 11:36:55;;;;;;;2.60;2.40;;;25.40;1.00;;;;;;5132978;27;20785;-48
2023/07/22 11:39:23;;;;;;;2.47;2.27;;;25.80;1.00;;;;;;5115888;27;20171;-46
2023/07/22 11:41:50;;;;;;;2.87;2.40;;;25.60;1.00;;;;;;5134125;27;20435;-48
2023/07/22 11:44:18;;;;;;;4.23;2.70;;;26.20;1.00;;;;;;5134208;27;20416;-48
2023/07/22 11:46:47;;;;;;;2.80;2.43;;;26.00;1.00;;;;;;5134496;27;20447;-48
2023/07/22 11:49:12;;;;;;;2.33;2.00;;;25.90;1.00;;;;;;5133511;27;20459;-49
2023/07/22 11:51:42;;;;;;;3.23;2.37;;;25.70;1.00;;;;;;5133677;27;21004;-49
2023/07/22 11:54:08;;;;;;;2.80;2.43;;;25.70;1.00;;;;;;5132692;27;20423;-49
2023/07/22 11:56:33;;;;;;;3.20;2.43;;;25.70;1.00;;;;;;5114756;27;20439;-47
2023/07/22 11:58:59;;;;;;;2.80;2.50;;;25.60;1.00;;;;;;5132673;27;20258;-47
2023/07/22 12:01:32;;;;;;;2.93;2.27;;;25.40;1.00;;;;;;5132204;27;20194;-48
2023/07/22 12:03:57;;;;;;;3.00;2.30;;;25.40;1.00;;;;;;5114464;27;20571;-47
2023/07/22 12:06:27;;;;;;;2.83;2.47;;;25.90;1.00;;;;;;5134332;27;20487;-49
2023/07/22 12:08:53;;;;;;;2.57;2.10;;;26.00;1.00;;;;;;5133840;27;20208;-48
2023/07/22 12:11:23;;;;;;;4.23;2.30;;;26.00;1.00;;;;;;5132623;27;20938;-47
2023/07/22 12:14:04;;;;;;;3.07;2.77;;;26.40;1.00;;;;;;5131287;27;20432;-49
2023/07/22 12:16:29;;;;;;;3.43;2.20;;;26.60;1.00;;;;;;5131353;27;20428;-48
2023/07/22 12:18:56;;;;;;;3.97;2.60;;;26.90;1.00;;;;;;5131376;27;20516;-48
2023/07/22 12:21:22;;;;;;;3.03;2.67;;;26.90;1.00;;;;;;5130713;27;20228;-47
2023/07/22 12:23:47;;;;;;;4.80;2.53;;;26.70;1.00;;;;;;5133232;27;20563;-48
2023/07/22 12:26:13;;;;;;;3.40;2.43;;;25.60;1.00;;;;;;5131688;27;20882;-48
2023/07/22 12:28:39;;;;;;;2.60;2.20;;;25.20;1.00;;;;;;5131014;27;20297;-51
2023/07/22 12:31:05;;;;;;;3.73;3.07;;;25.40;1.00;;;;;;5133117;27;20279;-47
2023/07/22 12:33:31;;;;;;;3.00;2.57;;;25.70;1.00;;;;;;5132203;27;20193;-47
2023/07/22 12:35:57;;;;;;;2.43;2.20;;;26.00;1.00;;;;;;5130779;27;20190;-47
2023/07/22 12:38:23;;;;;;;2.40;2.20;;;26.50;1.00;;;;;;5133318;27;20900;-49
2023/07/22 12:40:49;;;;;;;5.20;2.40;;;27.20;1.00;;;;;;5130697;27;20477;-49
2023/07/22 12:43:14;;;;;;;2.53;2.30;;;27.90;1.00;;;;;;5131640;27;20491;-47
2023/07/22 12:45:40;;;;;;;3.20;2.90;;;27.70;1.00;;;;;;5131163;27;20207;-49
2023/07/22 12:48:06;;;;;;;3.63;2.60;;;27.70;1.00;;;;;;5113349;27;20181;-49
2023/07/22 12:50:32;;;;;;;3.13;2.63;;;27.70;1.00;;;;;;5131334;27;20838;-49